Time;durP1;ratioP1;P1;durP2;ratioP2;P2;SDS_P1;SDS_P2;PMS_P1;PMS_P2;Temp;Humidity;BMP_temperature;BMP_pressure;BME280_temperature;BME280_humidity;BME280_pressure;Samples;Min_cycle;Max_cycle;Signal;HPM_P1;HPM_P2
2022/04/29 00:00:39;;;;;;;6.18;3.65;;;;;;;11.46;65.21;100212.06;4289402;33;33198;-75
2022/04/29 00:03:08;;;;;;;5.32;3.17;;;;;;;11.31;65.92;100204.25;4288770;33;35083;-75
2022/04/29 00:05:37;;;;;;;4.95;3.20;;;;;;;11.40;64.26;100204.25;4289567;33;34512;-75
2022/04/29 00:08:06;;;;;;;5.25;3.30;;;;;;;12.20;62.70;100201.53;4288324;33;34587;-75
2022/04/29 00:10:35;;;;;;;5.37;3.37;;;;;;;11.18;65.35;100205.97;4276813;33;34119;-75
2022/04/29 00:13:05;;;;;;;5.65;3.55;;;;;;;11.20;64.71;100206.84;4289772;33;35149;-75
2022/04/29 00:15:33;;;;;;;6.28;3.80;;;;;;;11.04;65.68;100203.34;4277491;33;34424;-75
2022/04/29 00:18:01;;;;;;;7.25;3.55;;;;;;;11.52;64.36;100200.75;4289388;33;33694;-75
2022/04/29 00:20:29;;;;;;;7.65;4.25;;;;;;;11.23;64.78;100208.59;4287210;33;34065;-75
2022/04/29 00:22:57;;;;;;;6.78;4.30;;;;;;;11.28;64.20;100206.87;4289445;33;35516;-75
2022/04/29 00:25:25;;;;;;;9.77;5.70;;;;;;;11.01;66.40;100203.34;4290206;33;34445;-75
2022/04/29 00:27:53;;;;;;;18.98;8.20;;;;;;;10.69;67.08;100204.16;4289549;33;33722;-75
2022/04/29 00:30:20;;;;;;;11.52;6.00;;;;;;;10.70;65.86;100199.84;4289557;33;33940;-75
2022/04/29 00:32:48;;;;;;;7.20;4.20;;;;;;;11.22;65.25;100199.87;4289413;33;35078;-75
2022/04/29 00:35:16;;;;;;;9.63;4.93;;;;;;;10.82;66.24;100202.47;4289576;33;34524;-75
2022/04/29 00:37:47;;;;;;;13.23;5.95;;;;;;;10.71;66.83;100198.94;4289347;33;33787;-75
2022/04/29 00:40:20;;;;;;;7.85;4.82;;;;;;;10.42;67.70;100192.78;4277414;33;33993;-75
2022/04/29 00:42:48;;;;;;;6.93;4.37;;;;;;;10.18;68.33;100198.75;4276292;33;35195;-75
2022/04/29 00:45:18;;;;;;;11.57;5.03;;;;;;;10.70;64.58;100192.03;4265532;33;34521;-75
2022/04/29 00:47:47;;;;;;;6.00;3.83;;;;;;;11.06;62.43;100198.16;4288454;33;33814;-75
2022/04/29 00:50:19;;;;;;;5.85;3.67;;;;;;;10.31;66.92;100199.69;4289562;33;33923;-74
2022/04/29 00:52:49;;;;;;;6.45;4.20;;;;;;;10.50;64.73;100199.75;4275453;33;35948;-75
2022/04/29 00:55:17;;;;;;;5.75;3.87;;;;;;;10.07;66.34;100203.88;4289831;33;33477;-75
2022/04/29 00:58:11;;;;;;;5.90;3.60;;;;;;;10.25;67.47;100204.84;4289280;33;33851;-75
2022/04/29 01:00:39;;;;;;;7.03;4.55;;;;;;;10.75;65.89;100201.56;4289072;33;34113;-75
2022/04/29 01:03:11;;;;;;;6.97;4.05;;;;;;;10.30;66.00;100197.91;4289004;33;35138;-75
2022/04/29 01:05:40;;;;;;;8.05;4.57;;;;;;;10.35;65.01;100196.22;4289259;33;35336;-75
2022/04/29 01:08:08;;;;;;;7.75;4.12;;;;;;;9.61;67.72;100205.34;4289127;33;34115;-75
2022/04/29 01:10:37;;;;;;;5.37;3.35;;;;;;;10.16;67.95;100202.19;4277069;33;33908;-75
2022/04/29 01:13:05;;;;;;;7.22;4.40;;;;;;;10.76;65.36;100203.28;4288941;33;35084;-75
2022/04/29 01:15:35;;;;;;;7.82;3.80;;;;;;;10.07;66.42;100203.00;4289821;33;34426;-75
2022/04/29 01:18:06;;;;;;;6.20;3.60;;;;;;;10.19;66.99;100200.47;4288650;33;34036;-75
2022/04/29 01:20:36;;;;;;;9.43;3.75;;;;;;;10.62;64.92;100199.78;4277023;33;34231;-75
2022/04/29 01:23:09;;;;;;;7.05;4.10;;;;;;;9.70;67.42;100194.13;4289011;33;34901;-75
2022/04/29 01:25:38;;;;;;;6.62;4.12;;;;;;;9.47;67.57;100198.28;4276052;33;34605;-75
2022/04/29 01:28:07;;;;;;;7.20;3.90;;;;;;;10.06;66.74;100194.34;4276041;33;34462;-75
2022/04/29 01:30:36;;;;;;;5.22;3.62;;;;;;;10.15;66.34;100192.66;4289905;33;34004;-75
2022/04/29 01:33:05;;;;;;;7.22;3.53;;;;;;;10.09;66.18;100184.81;4288535;33;35189;-75
2022/04/29 01:35:33;;;;;;;6.32;4.32;;;;;;;9.42;68.25;100183.53;4276883;33;35250;-75
2022/04/29 01:38:01;;;;;;;6.05;3.80;;;;;;;8.75;70.93;100189.84;4289051;33;34480;-74
2022/04/29 01:40:29;;;;;;;6.15;3.67;;;;;;;8.73;71.25;100182.09;4274904;33;33294;-75
2022/04/29 01:42:57;;;;;;;5.87;4.03;;;;;;;8.74;70.60;100177.75;4288973;33;35885;-75
2022/04/29 01:45:25;;;;;;;5.68;3.55;;;;;;;9.16;69.03;100180.72;4288654;33;35123;-75
2022/04/29 01:47:53;;;;;;;6.72;4.35;;;;;;;9.38;67.75;100185.22;4286775;33;34549;-75
2022/04/29 01:50:21;;;;;;;7.57;4.60;;;;;;;8.73;69.96;100186.37;4289428;33;33763;-75
2022/04/29 01:52:48;;;;;;;6.80;3.75;;;;;;;9.30;68.11;100180.00;4288829;33;35072;-75
2022/04/29 01:55:17;;;;;;;6.10;3.53;;;;;;;9.63;68.27;100183.66;4288636;33;34515;-75
2022/04/29 01:57:48;;;;;;;5.10;3.33;;;;;;;9.23;68.95;100178.19;4289068;33;33758;-75
2022/04/29 02:00:17;;;;;;;6.87;4.22;;;;;;;8.92;69.82;100184.84;4276704;33;34079;-75
2022/04/29 02:02:45;;;;;;;5.60;3.58;;;;;;;8.59;69.98;100186.22;4287961;33;35934;-75
2022/04/29 02:05:14;;;;;;;4.97;3.37;;;;;;;9.11;68.31;100180.69;4288768;33;34562;-74
2022/04/29 02:07:44;;;;;;;8.15;4.30;;;;;;;9.39;67.65;100183.50;4288620;33;33430;-75
2022/04/29 02:10:13;;;;;;;6.50;3.47;;;;;;;9.26;68.11;100178.19;4288276;33;33924;-74
2022/04/29 02:12:41;;;;;;;5.50;3.53;;;;;;;9.31;67.86;100188.66;4287448;33;35754;-75
2022/04/29 02:15:10;;;;;;;5.40;3.83;;;;;;;9.39;67.18;100181.78;4289246;33;33812;-74
2022/04/29 02:17:38;;;;;;;8.13;3.60;;;;;;;9.77;65.97;100185.50;4288361;33;34485;-75
2022/04/29 02:20:07;;;;;;;5.72;3.72;;;;;;;9.41;67.08;100187.88;4289333;33;33851;-74
2022/04/29 02:22:35;;;;;;;5.22;3.30;;;;;;;9.08;68.11;100178.06;4288370;33;35168;-75
2022/04/29 02:25:03;;;;;;;6.25;3.60;;;;;;;9.38;67.42;100176.56;4288703;33;35270;-74
2022/04/29 02:27:31;;;;;;;5.68;3.55;;;;;;;9.43;66.63;100177.47;4287315;33;33715;-74
2022/04/29 02:29:59;;;;;;;5.57;3.12;;;;;;;9.16;67.60;100181.59;4289258;33;33834;-74
2022/04/29 02:32:27;;;;;;;5.22;3.62;;;;;;;9.38;66.87;100179.19;4288141;33;35062;-74
2022/04/29 02:34:55;;;;;;;4.78;2.97;;;;;;;8.96;67.87;100184.00;4261808;33;34122;-74
2022/04/29 02:37:23;;;;;;;7.12;3.45;;;;;;;8.80;69.15;100183.00;4261889;33;33546;-74
2022/04/29 02:39:51;;;;;;;7.60;3.92;;;;;;;8.34;70.27;100187.66;4288050;33;34742;-74
2022/04/29 02:42:19;;;;;;;6.82;3.92;;;;;;;8.56;69.35;100187.91;4287974;33;35024;-74
2022/04/29 02:44:46;;;;;;;6.15;3.60;;;;;;;8.91;68.18;100186.59;4289545;33;34587;-75
2022/04/29 02:47:16;;;;;;;4.03;3.22;;;;;;;8.69;68.46;100184.62;4291122;33;32829;-74
2022/04/29 02:49:44;;;;;;;6.47;3.50;;;;;;;8.82;68.26;100186.47;4290129;33;34019;-74
2022/04/29 02:52:13;;;;;;;5.47;3.10;;;;;;;8.68;68.11;100181.16;4291107;33;35048;-74
2022/04/29 02:54:42;;;;;;;5.97;3.45;;;;;;;9.10;66.70;100176.34;4284797;33;139869;-74
2022/04/29 02:57:11;;;;;;;5.53;3.92;;;;;;;8.89;67.29;100184.81;4290208;33;33796;-74
2022/04/29 02:59:39;;;;;;;4.43;3.17;;;;;;;9.01;67.15;100181.47;4289287;33;33824;-74
2022/04/29 03:02:08;;;;;;;4.68;3.20;;;;;;;8.79;68.01;100180.38;4289913;33;35058;-74
2022/04/29 03:04:37;;;;;;;5.22;3.50;;;;;;;8.26;70.10;100184.06;4290227;33;34578;-74
2022/04/29 03:07:05;;;;;;;7.03;3.95;;;;;;;8.05;71.14;100190.75;4290698;33;33585;-74
2022/04/29 03:09:36;;;;;;;5.35;3.35;;;;;;;8.39;70.35;100179.94;4289166;33;34390;-74
2022/04/29 03:12:05;;;;;;;7.78;3.87;;;;;;;8.34;70.33;100187.66;4290639;33;35509;-74
2022/04/29 03:14:33;;;;;;;7.45;4.15;;;;;;;8.04;71.87;100183.81;4290155;33;34605;-74
2022/04/29 03:17:01;;;;;;;5.82;3.87;;;;;;;8.43;71.17;100182.59;4290239;33;34472;-74
2022/04/29 03:19:29;;;;;;;6.90;3.85;;;;;;;7.88;72.21;100187.06;4289900;33;33789;-74
2022/04/29 03:21:57;;;;;;;4.70;3.37;;;;;;;8.42;72.46;100185.13;4290630;33;35795;-74
2022/04/29 03:24:25;;;;;;;5.72;3.72;;;;;;;8.61;71.85;100188.84;4289758;33;35150;-74
2022/04/29 03:26:53;;;;;;;6.00;3.40;;;;;;;8.57;72.67;100187.09;4290559;33;34064;-74
2022/04/29 03:29:21;;;;;;;5.15;3.40;;;;;;;8.92;71.64;100188.31;4289724;33;34809;-74
2022/04/29 03:31:49;;;;;;;6.05;3.28;;;;;;;8.73;72.71;100186.37;4289780;33;36003;-74
2022/04/29 03:34:18;;;;;;;7.18;4.05;;;;;;;8.91;72.13;100183.09;4290088;33;34654;-74
2022/04/29 03:36:45;;;;;;;5.30;3.05;;;;;;;8.06;75.13;100176.91;4290529;33;34635;-74
2022/04/29 03:39:13;;;;;;;6.37;3.47;;;;;;;8.46;74.32;100187.81;4289992;33;33851;-75
2022/04/29 03:41:42;;;;;;;5.62;3.47;;;;;;;8.89;73.56;100190.00;4289675;33;35860;-74
2022/04/29 03:44:10;;;;;;;5.57;3.95;;;;;;;8.99;73.98;100188.38;4287261;33;34376;-74
2022/04/29 03:46:39;;;;;;;5.37;3.50;;;;;;;9.24;73.07;100184.25;4289531;33;33806;-74
2022/04/29 03:49:41;;;;;;;5.45;3.50;;;;;;;9.19;73.53;100183.34;4288960;33;33243;-74
2022/04/29 03:52:02;;;;;;;4.85;3.33;;;;;;;9.49;72.66;100190.50;4266569;33;34470;-74
2022/04/29 03:54:30;;;;;;;7.75;3.53;;;;;;;9.25;74.22;100186.88;4276575;33;35229;-74
2022/04/29 03:56:59;;;;;;;7.03;3.70;;;;;;;9.24;73.14;100189.47;4290489;33;33806;-74
2022/04/29 03:59:29;;;;;;;5.68;3.40;;;;;;;9.69;72.12;100193.28;4277128;33;33934;-74
2022/04/29 04:01:57;;;;;;;6.62;3.80;;;;;;;9.92;71.51;100196.00;4290151;33;35034;-75
2022/04/29 04:04:26;;;;;;;4.75;3.25;;;;;;;9.70;71.72;100197.59;4289259;33;34408;-74
2022/04/29 04:07:01;;;;;;;6.43;3.55;;;;;;;9.86;71.13;100193.34;4289681;33;33565;-74
2022/04/29 04:09:30;;;;;;;8.60;3.37;;;;;;;9.85;71.75;100202.91;4289844;33;33804;-74
2022/04/29 04:11:58;;;;;;;5.10;3.03;;;;;;;10.39;70.92;100197.13;4290324;33;35044;-74
2022/04/29 04:14:28;;;;;;;5.37;3.47;;;;;;;11.09;69.38;100192.94;4288452;33;33927;-75
2022/04/29 04:16:58;;;;;;;5.57;3.62;;;;;;;11.22;69.72;100201.62;4277219;33;34627;-75
2022/04/29 04:19:26;;;;;;;7.30;3.78;;;;;;;11.38;69.25;100195.53;4289354;33;34232;-75
2022/04/29 04:21:54;;;;;;;5.40;3.50;;;;;;;11.17;70.92;100199.91;4289653;33;35110;-74
2022/04/29 04:24:23;;;;;;;5.97;3.30;;;;;;;11.57;71.48;100199.87;4289318;33;34348;-75
2022/04/29 04:26:51;;;;;;;5.70;3.83;;;;;;;11.47;70.98;100194.69;4290148;33;33531;-74
2022/04/29 04:29:18;;;;;;;5.57;3.40;;;;;;;12.32;66.54;100195.41;4289180;33;34271;-75
2022/04/29 04:31:47;;;;;;;4.72;2.97;;;;;;;12.46;65.31;100204.03;4289818;33;36020;-74
2022/04/29 04:37:02;;;;;;;5.35;2.97;;;;;;;13.33;64.81;100204.38;4289377;33;33230;-75
2022/04/29 04:39:30;;;;;;;5.03;3.33;;;;;;;13.01;65.58;100215.91;4289263;33;34058;-74
2022/04/29 04:41:59;;;;;;;4.45;2.92;;;;;;;13.22;64.17;100219.28;4289202;33;34970;-75
2022/04/29 04:44:29;;;;;;;5.78;3.05;;;;;;;12.97;67.23;100216.81;4290126;33;34554;-75
2022/04/29 04:46:57;;;;;;;5.18;3.40;;;;;;;13.74;64.90;100213.59;4289443;33;34459;-75
2022/04/29 04:49:27;;;;;;;4.62;3.05;;;;;;;14.02;65.82;100222.06;4290125;33;34778;-75
2022/04/29 04:51:56;;;;;;;5.45;3.53;;;;;;;14.53;65.50;100218.84;4288441;33;34936;-74
2022/04/29 04:54:29;;;;;;;4.97;3.25;;;;;;;14.55;64.75;100214.44;4289994;33;35228;-74
2022/04/29 04:56:58;;;;;;;5.93;3.75;;;;;;;14.68;60.93;100220.44;4276288;33;33601;-75
2022/04/29 04:59:26;;;;;;;5.50;3.28;;;;;;;14.74;58.78;100222.09;4288016;33;34807;-74
2022/04/29 05:02:04;;;;;;;5.47;3.30;;;;;;;14.79;61.41;100220.28;4287911;33;35059;-74
2022/04/29 05:04:34;;;;;;;6.10;3.87;;;;;;;15.14;57.53;100232.00;4290038;33;34461;-76
2022/04/29 05:07:03;;;;;;;6.03;3.70;;;;;;;15.17;57.93;100231.97;4288634;33;33628;-76
2022/04/29 05:09:31;;;;;;;5.60;3.42;;;;;;;15.19;53.65;100224.94;4289618;33;34790;-76
2022/04/29 05:11:59;;;;;;;6.35;4.03;;;;;;;15.34;51.09;100224.69;4276091;33;35075;-76
2022/04/29 05:14:37;;;;;;;6.35;3.70;;;;;;;15.39;52.92;100223.75;4290033;33;34535;-76
2022/04/29 05:17:05;;;;;;;6.72;4.03;;;;;;;16.19;53.10;100225.00;4289103;33;33935;-77
2022/04/29 05:19:35;;;;;;;5.85;3.75;;;;;;;15.78;52.00;100226.66;4276788;33;33744;-75
2022/04/29 05:22:04;;;;;;;8.77;3.60;;;;;;;15.95;49.61;100227.16;4288993;33;35479;-76
2022/04/29 05:24:32;;;;;;;5.93;3.55;;;;;;;16.69;45.49;100230.94;4287476;33;35243;-75
2022/04/29 05:27:04;;;;;;;7.18;4.43;;;;;;;17.22;44.47;100234.19;4277446;33;33673;-74
2022/04/29 05:29:37;;;;;;;5.82;3.55;;;;;;;17.91;44.91;100225.47;4289557;33;34046;-75
2022/04/29 05:32:09;;;;;;;7.32;3.50;;;;;;;17.11;45.54;100233.56;4276979;33;35902;-75
2022/04/29 05:34:42;;;;;;;5.57;3.42;;;;;;;17.09;45.80;100234.50;4277307;33;33898;-75
2022/04/29 05:37:16;;;;;;;6.62;3.15;;;;;;;16.91;47.28;100234.03;4277560;33;32357;-75
2022/04/29 05:42:31;;;;;;;4.03;2.80;;;;;;;17.60;42.59;100227.09;4289429;33;35958;-76
2022/04/29 05:45:02;;;;;;;5.72;3.35;;;;;;;17.91;41.03;100228.09;4288494;33;34931;-76
2022/04/29 05:47:30;;;;;;;4.65;3.17;;;;;;;17.79;40.96;100224.88;4288800;33;34498;-76
2022/04/29 05:49:59;;;;;;;6.55;3.20;;;;;;;18.05;41.96;100227.72;4288462;33;34797;-75
2022/04/29 05:52:27;;;;;;;6.12;3.40;;;;;;;16.98;44.29;100230.34;4289628;33;35902;-75
2022/04/29 05:54:55;;;;;;;5.28;3.10;;;;;;;17.67;43.50;100229.59;4287754;33;35231;-75
2022/04/29 05:57:23;;;;;;;4.95;2.80;;;;;;;18.80;40.27;100233.50;4289000;33;34540;-75
2022/04/29 05:59:51;;;;;;;5.80;3.35;;;;;;;18.41;41.18;100235.53;4288443;33;33865;-75
2022/04/29 06:02:23;;;;;;;6.03;3.00;;;;;;;18.08;43.86;100238.19;4264598;33;33742;-75
2022/04/29 06:04:52;;;;;;;6.60;3.37;;;;;;;18.10;41.53;100242.50;4288561;33;34517;-75
2022/04/29 06:07:20;;;;;;;5.05;3.20;;;;;;;18.35;41.77;100240.06;4289350;33;34584;-75
2022/04/29 06:09:48;;;;;;;5.90;3.28;;;;;;;18.55;41.77;100255.31;4288584;33;34781;-75
2022/04/29 06:12:16;;;;;;;7.03;3.28;;;;;;;18.75;39.99;100245.94;4288580;33;36030;-75
2022/04/29 06:14:45;;;;;;;6.20;3.25;;;;;;;18.67;40.85;100243.56;4287648;33;35370;-75
2022/04/29 06:17:15;;;;;;;5.18;3.33;;;;;;;18.58;42.33;100246.44;4289320;33;33465;-75
2022/04/29 06:19:47;;;;;;;5.72;3.35;;;;;;;18.51;44.61;100242.25;4289872;33;32369;-75
2022/04/29 06:22:16;;;;;;;4.20;3.00;;;;;;;19.14;41.11;100249.16;4291233;33;35870;-75
2022/04/29 06:24:44;;;;;;;4.78;3.05;;;;;;;19.75;40.71;100244.59;4290085;33;34248;-76
2022/04/29 06:27:32;;;;;;;5.32;3.05;;;;;;;19.30;39.69;100253.97;4285718;33;33340;-75
2022/04/29 06:30:01;;;;;;;4.65;2.95;;;;;;;20.14;37.23;100247.63;4290047;33;34030;-75
2022/04/29 06:32:30;;;;;;;4.40;2.70;;;;;;;20.31;38.18;100254.09;4290096;33;36055;-75
2022/04/29 06:35:02;;;;;;;4.95;2.87;;;;;;;20.03;35.69;100250.66;4290373;33;34564;-75
2022/04/29 06:37:30;;;;;;;5.15;3.00;;;;;;;19.49;41.10;100249.81;4290985;33;34557;-75
2022/04/29 06:40:00;;;;;;;4.03;2.55;;;;;;;20.86;36.34;100256.47;4290454;33;34149;-75
2022/04/29 06:42:29;;;;;;;5.40;3.12;;;;;;;21.17;35.63;100256.16;4289197;33;35946;-75
2022/04/29 06:45:00;;;;;;;4.22;2.67;;;;;;;21.15;33.38;100253.56;4290385;33;34605;-75
2022/04/29 06:47:30;;;;;;;5.18;2.67;;;;;;;20.88;32.60;100255.50;4291094;33;33676;-75
2022/04/29 06:50:04;;;;;;;5.18;2.95;;;;;;;20.71;31.96;100247.34;4290234;33;32276;-75
2022/04/29 06:52:34;;;;;;;4.82;2.70;;;;;;;20.87;31.53;100247.63;4291201;33;34326;-75
2022/04/29 06:55:04;;;;;;;4.60;2.80;;;;;;;21.20;32.49;100251.59;4289892;33;33647;-75
2022/04/29 06:57:34;;;;;;;5.43;2.53;;;;;;;21.29;31.85;100253.00;4291021;33;34488;-75
2022/04/29 07:00:04;;;;;;;5.25;2.80;;;;;;;20.94;32.36;100249.97;4289325;33;34006;-75
2022/04/29 07:02:33;;;;;;;6.65;2.80;;;;;;;21.98;31.82;100249.28;4289949;33;35366;-75
2022/04/29 07:05:02;;;;;;;3.83;2.58;;;;;;;21.78;30.57;100242.19;4277241;33;33763;-76
2022/04/29 07:07:30;;;;;;;4.93;2.40;;;;;;;21.61;30.39;100244.69;4290959;33;33675;-75
2022/04/29 07:09:58;;;;;;;4.15;2.33;;;;;;;21.96;36.58;100241.38;4289413;33;34850;-75
2022/04/29 07:12:46;;;;;;;4.37;3.03;;;;;;;21.47;31.78;100247.91;4290952;33;33804;-76
2022/04/29 07:15:15;;;;;;;5.65;2.65;;;;;;;21.87;31.55;100238.28;4289409;33;33665;-75
2022/04/29 07:17:44;;;;;;;5.97;2.50;;;;;;;22.42;30.49;100242.97;4291018;33;33677;-75
2022/04/29 07:20:13;;;;;;;3.97;2.25;;;;;;;22.01;32.31;100246.50;4289934;33;34004;-75
2022/04/29 07:22:42;;;;;;;3.70;2.28;;;;;;;22.20;31.42;100243.91;4290826;33;35039;-75
2022/04/29 07:25:11;;;;;;;5.22;2.70;;;;;;;21.98;31.95;100246.63;4290027;33;35231;-75
2022/04/29 07:27:40;;;;;;;6.60;2.40;;;;;;;21.58;32.29;100257.16;4290638;33;33821;-75
2022/04/29 07:30:10;;;;;;;4.60;2.22;;;;;;;21.80;32.25;100247.44;4266357;33;34022;-75
2022/04/29 07:32:38;;;;;;;2.97;1.90;;;;;;;20.95;34.00;100242.91;4288384;33;35175;-75
2022/04/29 07:43:44;;;;;;;3.03;1.85;;;;;;;22.28;28.31;100247.09;4290736;33;35210;-76
2022/04/29 07:46:12;;;;;;;5.03;2.62;;;;;;;22.38;26.22;100241.38;4289756;33;34529;-75
2022/04/29 07:48:41;;;;;;;3.72;2.30;;;;;;;21.89;26.84;100236.44;4289255;33;33728;-76
2022/04/29 07:51:09;;;;;;;4.40;2.25;;;;;;;23.18;24.88;100243.84;4289717;33;34027;-75
2022/04/29 07:53:37;;;;;;;4.03;2.50;;;;;;;23.52;30.00;100236.84;4289536;33;35135;-76
2022/04/29 07:56:05;;;;;;;4.75;2.30;;;;;;;23.03;28.15;100245.41;4289655;33;34471;-75
2022/04/29 07:58:34;;;;;;;3.70;2.03;;;;;;;23.51;27.94;100243.13;4290753;33;33768;-75
2022/04/29 08:01:03;;;;;;;4.25;2.47;;;;;;;23.05;29.19;100243.59;4276786;33;33835;-75
2022/04/29 08:03:37;;;;;;;4.97;2.30;;;;;;;23.34;27.36;100243.09;4290035;33;35902;-75
2022/04/29 08:06:07;;;;;;;4.10;2.35;;;;;;;23.37;27.31;100246.47;4276610;33;34545;-75
2022/04/29 08:08:37;;;;;;;4.20;2.28;;;;;;;23.34;27.47;100243.94;4290659;33;33711;-75
2022/04/29 08:11:07;;;;;;;3.70;2.28;;;;;;;23.54;22.58;100234.13;4289395;33;34907;-75
2022/04/29 08:13:36;;;;;;;3.90;2.40;;;;;;;24.04;21.96;100233.37;4290632;33;35177;-76
2022/04/29 08:16:30;;;;;;;5.22;2.42;;;;;;;23.91;21.84;100238.44;4289496;33;34441;-75
2022/04/29 08:19:00;;;;;;;3.47;2.20;;;;;;;24.09;21.34;100235.78;4276656;33;32893;-76
2022/04/29 08:21:31;;;;;;;3.22;2.20;;;;;;;23.84;23.58;100231.72;4289792;33;34764;-76
2022/04/29 08:24:02;;;;;;;3.20;2.12;;;;;;;24.51;23.79;100231.75;4290280;33;35187;-75
2022/04/29 08:26:30;;;;;;;5.05;2.40;;;;;;;24.25;21.39;100231.38;4289708;33;34618;-75
2022/04/29 08:28:58;;;;;;;3.28;2.33;;;;;;;24.13;23.02;100226.72;4290514;33;33732;-76
2022/04/29 08:31:27;;;;;;;3.20;2.25;;;;;;;23.91;23.11;100226.94;4288637;33;33844;-75
2022/04/29 08:33:55;;;;;;;3.47;2.20;;;;;;;24.74;21.81;100228.75;4289166;33;35072;-76
2022/04/29 08:36:24;;;;;;;5.95;2.75;;;;;;;24.82;22.09;100225.62;4288533;33;33579;-76
2022/04/29 08:38:52;;;;;;;4.65;2.47;;;;;;;24.39;26.73;100233.31;4290347;33;33808;-75
2022/04/29 08:41:21;;;;;;;5.50;2.70;;;;;;;23.92;25.17;100215.38;4288645;33;34083;-76
2022/04/29 08:43:49;;;;;;;4.30;2.62;;;;;;;24.36;24.15;100221.00;4290431;33;34893;-75
2022/04/29 08:46:21;;;;;;;3.42;2.25;;;;;;;24.50;20.81;100214.06;4289508;33;35145;-76
2022/04/29 08:48:54;;;;;;;3.67;2.50;;;;;;;23.73;23.27;100218.09;4289162;33;34355;-75
2022/04/29 08:51:22;;;;;;;4.30;2.83;;;;;;;24.53;21.50;100225.44;4289252;33;33746;-76
2022/04/29 08:53:49;;;;;;;4.65;2.70;;;;;;;24.13;22.12;100214.25;4289978;33;35027;-76
2022/04/29 08:59:06;;;;;;;4.18;2.42;;;;;;;24.50;22.27;100211.41;4279174;33;34329;-76
2022/04/29 09:01:34;;;;;;;4.28;2.50;;;;;;;25.45;19.96;100208.75;4289689;33;34061;-75
2022/04/29 09:04:02;;;;;;;3.83;2.40;;;;;;;24.66;20.48;100201.66;4302394;33;35180;-75
2022/04/29 09:06:30;;;;;;;5.60;2.62;;;;;;;24.23;21.45;100202.19;4289918;33;34534;-74
2022/04/29 09:09:09;;;;;;;4.85;2.30;;;;;;;24.58;22.67;100193.22;4289792;33;33795;-76
2022/04/29 09:11:37;;;;;;;3.42;2.35;;;;;;;24.40;23.97;100198.59;4275957;33;34814;-75
2022/04/29 09:14:23;;;;;;;3.42;1.80;;;;;;;24.31;24.09;100192.91;4289393;33;35525;-74
2022/04/29 09:16:51;;;;;;;5.35;2.33;;;;;;;23.51;24.75;100197.94;4289083;33;34444;-75
2022/04/29 09:19:33;;;;;;;4.97;2.30;;;;;;;22.62;24.60;100199.56;4289585;33;33778;-75
2022/04/29 09:22:07;;;;;;;3.45;1.98;;;;;;;22.86;26.32;100202.87;4288375;33;33984;-74
2022/04/29 09:24:37;;;;;;;3.70;2.50;;;;;;;22.04;28.71;100190.69;4286773;33;35911;-74
2022/04/29 09:27:08;;;;;;;4.15;2.80;;;;;;;20.96;28.05;100200.47;4289104;33;34414;-76
2022/04/29 09:29:43;;;;;;;4.40;2.37;;;;;;;21.37;27.45;100191.75;4289597;33;34173;-76
2022/04/29 09:32:13;;;;;;;5.22;3.47;;;;;;;22.04;27.67;100187.16;4288041;33;33930;-76
2022/04/29 09:34:54;;;;;;;5.90;2.70;;;;;;;22.82;27.86;100183.56;4289522;33;35987;-76
2022/04/29 09:37:24;;;;;;;3.53;2.33;;;;;;;22.48;26.08;100184.28;4289184;33;34365;-76
2022/04/29 09:40:14;;;;;;;6.70;3.05;;;;;;;22.49;26.28;100184.22;4288258;33;33674;-76
2022/04/29 09:42:44;;;;;;;5.32;2.62;;;;;;;21.52;26.23;100185.00;4273964;33;34891;-75
2022/04/29 09:45:21;;;;;;;4.25;2.83;;;;;;;21.23;27.63;100186.16;4276386;33;34928;-76
2022/04/29 09:47:58;;;;;;;7.12;3.00;;;;;;;21.88;27.74;100184.31;4288447;33;34219;-75
2022/04/29 09:50:49;;;;;;;3.85;2.75;;;;;;;22.96;25.94;100179.37;4275000;33;33677;-75
2022/04/29 09:53:23;;;;;;;5.60;3.35;;;;;;;23.95;24.40;100180.66;4277580;33;33995;-75
2022/04/29 09:56:05;;;;;;;4.22;2.50;;;;;;;22.86;26.26;100185.13;4276370;33;36613;-75
2022/04/29 09:58:33;;;;;;;3.53;2.10;;;;;;;21.85;28.89;100181.78;4291124;33;35392;-75
2022/04/29 10:01:04;;;;;;;4.25;2.28;;;;;;;22.57;24.52;100175.03;4289062;33;33757;-75
2022/04/29 10:03:35;;;;;;;4.40;2.10;;;;;;;23.05;23.77;100174.50;4291058;33;34071;-76
2022/04/29 10:06:04;;;;;;;5.10;2.70;;;;;;;22.93;22.58;100172.41;4290069;33;35025;-75
2022/04/29 10:08:33;;;;;;;3.25;2.00;;;;;;;23.17;24.13;100172.16;4277244;33;34599;-76
2022/04/29 10:11:01;;;;;;;5.97;2.37;;;;;;;23.01;22.47;100161.41;4288888;33;33637;-75
2022/04/29 10:13:32;;;;;;;3.40;2.50;;;;;;;23.43;22.00;100166.41;4277824;33;34800;-75
2022/04/29 10:16:01;;;;;;;3.83;2.40;;;;;;;22.38;24.61;100170.59;4276735;33;35115;-75
2022/04/29 10:21:24;;;;;;;4.95;2.72;;;;;;;21.48;28.53;100168.34;4289225;33;34466;-75
2022/04/29 10:23:52;;;;;;;5.32;1.90;;;;;;;22.49;26.27;100157.69;4290416;33;34043;-75
2022/04/29 10:26:21;;;;;;;3.12;2.17;;;;;;;23.26;24.16;100156.66;4288765;33;35925;-74
2022/04/29 10:28:49;;;;;;;3.50;1.98;;;;;;;23.71;22.24;100150.84;4277194;33;34561;-76
2022/04/29 10:31:20;;;;;;;5.90;2.42;;;;;;;23.64;21.34;100151.16;4276589;33;33921;-76
2022/04/29 10:33:48;;;;;;;5.50;3.05;;;;;;;24.59;27.76;100155.00;4291008;33;33162;-75
2022/04/29 10:36:22;;;;;;;4.93;2.90;;;;;;;24.04;31.22;100159.72;4290204;33;35108;-75
2022/04/29 10:39:00;;;;;;;6.45;3.03;;;;;;;24.24;31.49;100152.47;4290790;33;35322;-75
2022/04/29 10:41:33;;;;;;;5.20;2.62;;;;;;;25.10;28.80;100154.78;4288639;33;33640;-76
2022/04/29 10:44:04;;;;;;;4.35;2.92;;;;;;;25.08;27.75;100154.88;4289857;33;34796;-76
2022/04/29 10:46:36;;;;;;;5.30;3.10;;;;;;;25.23;28.14;100145.13;4276857;33;34334;-75
2022/04/29 10:49:25;;;;;;;4.80;3.30;;;;;;;23.50;31.87;100142.19;4289816;33;34583;-75
2022/04/29 10:51:59;;;;;;;6.95;2.90;;;;;;;23.02;29.05;100139.25;4289816;33;34194;-76
2022/04/29 10:54:33;;;;;;;6.30;3.22;;;;;;;22.14;30.06;100138.91;4290501;33;34062;-75
2022/04/29 10:57:12;;;;;;;5.03;2.78;;;;;;;23.07;29.72;100139.91;4289956;33;35222;-75
2022/04/29 10:59:50;;;;;;;4.22;3.12;;;;;;;21.71;30.52;100127.59;4277408;33;35373;-75
2022/04/29 11:02:31;;;;;;;5.25;2.87;;;;;;;21.34;31.19;100131.81;4289767;33;33639;-75
2022/04/29 11:05:00;;;;;;;3.78;2.78;;;;;;;20.82;33.96;100128.69;4263378;33;34615;-75
2022/04/29 11:07:35;;;;;;;6.03;3.08;;;;;;;21.40;28.13;100128.03;4286791;33;35951;-76
2022/04/29 11:10:22;;;;;;;4.28;2.67;;;;;;;22.44;28.81;100119.88;4290535;33;35245;-75
2022/04/29 11:12:59;;;;;;;5.00;2.67;;;;;;;23.29;28.43;100121.06;4290752;33;34405;-76
2022/04/29 11:15:44;;;;;;;5.45;3.03;;;;;;;22.70;29.25;100115.13;4289294;33;32295;-72
2022/04/29 11:18:23;;;;;;;3.45;2.33;;;;;;;23.84;28.16;100120.00;4277416;33;33385;-73
2022/04/29 11:20:59;;;;;;;5.28;2.47;;;;;;;24.03;27.65;100119.88;4289781;33;34502;-73
2022/04/29 11:26:17;;;;;;;7.10;2.92;;;;;;;22.94;28.93;100109.53;4281854;33;33971;-74
2022/04/29 11:28:51;;;;;;;4.03;2.72;;;;;;;24.00;29.35;100107.63;4283919;33;36044;-74
2022/04/29 11:31:21;;;;;;;5.07;3.22;;;;;;;23.95;32.79;100106.16;4288843;33;34377;-74
2022/04/29 11:33:51;;;;;;;7.55;2.90;;;;;;;23.83;27.16;100107.69;4290253;33;34543;-75
2022/04/29 11:36:19;;;;;;;5.43;3.25;;;;;;;24.27;29.09;100107.06;4289515;33;34181;-76
2022/04/29 11:38:49;;;;;;;5.30;3.10;;;;;;;23.69;28.92;100095.06;4290120;33;35905;-75
2022/04/29 11:41:22;;;;;;;5.93;2.92;;;;;;;23.45;29.21;100095.44;4289657;33;34481;-77
2022/04/29 11:43:51;;;;;;;5.10;3.35;;;;;;;23.48;30.61;100097.91;4276972;33;33778;-72
2022/04/29 11:46:21;;;;;;;4.57;3.12;;;;;;;23.18;29.16;100095.03;4289469;33;34009;-75
2022/04/29 11:48:58;;;;;;;4.80;2.83;;;;;;;23.74;29.13;100092.19;4289793;33;34788;-74
2022/04/29 11:51:27;;;;;;;5.78;3.00;;;;;;;23.44;26.20;100092.84;4287827;33;34471;-75
2022/04/29 11:53:59;;;;;;;4.32;3.05;;;;;;;23.80;29.03;100084.75;4290364;33;33657;-75
2022/04/29 11:56:35;;;;;;;6.40;3.65;;;;;;;23.96;29.60;100086.59;4277090;33;34751;-75
2022/04/29 11:59:05;;;;;;;4.87;2.67;;;;;;;23.35;32.93;100080.03;4289304;33;34989;-75
2022/04/29 12:01:34;;;;;;;5.03;2.87;;;;;;;23.94;31.33;100070.69;4274621;33;35120;-75
2022/04/29 12:04:03;;;;;;;7.00;2.95;;;;;;;23.91;28.85;100067.34;4276204;33;33530;-76